Lynchburg Regional Preston Glenn Field
KLYH : now visible

Airfield :











YOU CAN JOIN US ON...

 
LOGIN :

Register | Disclaimer

   EN    FR    IT 

 









Legend :    VFR   Marginal VFR   IFR   Intensive IFR   Very Intensive IFR
Visi :
Ceiling :
>= 8 km
>= 3000ft
5 to 8 km
1000 to 3000 ft
1500m to 5 km
500 to 1000 ft
800 to 1500m
200 to 500 ft
< 800m
< 200 ft
Symbols :   Thunderstorms  Fog  Heavy snow  Heavy precipitations  Wind > 20 kt






- Airport Elevation : 938 ft
- IATA code : LYH


KLYH - Lynchburg Regional Preston Glenn Field

CURRENT METAR :
  • 141854Z 04006KT 10SM SCT022 BKN030 BKN042 27/22 A2998 RMK AO2 RAB21E31 SLP141 P0000 T02720217

EXPIRED METARs :
  • 141754Z 11004KT 10SM SCT025 BKN080 28/21 A3000 RMK AO2 SLP147 60004 T02780211 10283 20233 58013
  • 141654Z 09003KT 10SM BKN023 BKN075 26/22 A3001 RMK AO2 RAB00E47 SLP153 P0000 T02610222

TAF KLYH
Valid from the 14 at 18:00 until the 15 at 18:00 UTC


141720Z 1418/1518 09004KT P6SM VCTS BKN025CB
TEMPO 1418/1421 4SM SHRA SCT007 BKN040
FM142100 VRB04KT P6SM VCTS BKN045CB
TEMPO 1421/1501 4SM SHRA OVC020
FM150100 02003KT P6SM VCSH BKN025
FM150600 VRB03KT 6SM BR BKN009
FM151100 07005KT 5SM -SHRA BR OVC007
KZDC FIR / North America



MET'MAP, your aeronautical weather chart ! - Copyright ORBIFLY December 2007 - Disclaimer

ORBIFLY MET'MAP TEAM :

Programming & Development : Alexandra Zaïnal
Concept & original design : Baudouin d'Aumeries
Assistance for programming : Marc-Olivier Méhu
Technical & hardware support : Manuel Goepfert

Contact : metmap@orbifly.com




SOURCES & CREDITS :

   NOAA       Earth
Advisory